Huvudsida
METAR-TAF:

METAR-TAF

Flygplatser :

Bardufoss flygplats

Bardufoss, Norge

latitud: 69-04N, longitud: 018-32E, höjd: 7 m

Aktuellt väderrapport

Denna rapport gjordes för 37 minuter sedan, klockan 15:50 UTC
Stilla vind
Temperatur -16°C
Fuktighet 84%
Tryck 1023 hPa
Sikt 10 km eller mer
Inga moln under 1 500 m eller inga cumulonimbus

METAR: ENDU 191550Z 00000KT CAVOK M16/M18 Q1023 NOSIG RMK WIND 1100FT 16006KT WIND 2200FT 13020KT

Tid: 17:27 (16:27 UTC)

Väderprognos

Prognos gäller från 19 kl. 12 UTC till 20 kl. 12 UTC
Vind 5 kt varierande vindriktning
Sikt 10 km eller mer
Få moln på en höjd av 4000 ft

TAF: ENDU 1912/2012 VRB05KT 9999 FEW040

Aktuella väderrapporter och prognoser från 4000 flygplatser (METAR- och TAF-rapporter).

De tillgängliga stationerna syns som gula och röda prickar på kartan.

För musen över prickarna för att se namnen på stationerna.

Klicka sedan för att få väderrapporter och prognoser.

För att ändra kartan: Klicka på de gröna knapparna med ett svart kors på för att zooma in; den gröna knappen med ett streck på för att zooma ut; eller på de gröna pilarna för angränsande kartor.


METAR-TAF: